Main page
METAR-TAF:

METAR-TAF

Airports :

Durham Tees Valley Airport

Durham, England

latitude: 54-31N, longitude: 001-25W, elevation: 37 m

Current weather observation

The report was made 23 minutes ago, at 18:20 UTC
Wind 13 kt from the East/Northeast
Temperature 6°C
Humidity 81%
Pressure 1025 hPa
Visibility 10 km or more
Few clouds at a height of 2500 ft
Scattered clouds at a height of 3400 ft
light rain

METAR: EGNV 191820Z 06013KT 9999 -RA FEW025 SCT034 06/03 Q1025

Time: 18:43 (18:43 UTC)

Forecast

The report was made 1 hour and 43 minutes ago, at 17:00 UTC
Forecast valid from 19 at 18 UTC to 19 at 22 UTC
Wind 12 kt from the East/Northeast
Visibility 10 km or more
Scattered clouds at a height of 4000 ft
Temporary
from 19 at 18 UTC to 19 at 22 UTC
Wind 15 kt from the East with gusts up to 25 kt
Visibility: 7000 m
rain showers

TAF: EGNV 191700Z 1918/1922 06012KT 9999 SCT040 TEMPO 1918/1922 08015G25KT 7000 SHRA

Weather observations and forecasts of more than 4000 airports (METAR and TAF reports).

The available stations are represented by yellow and red dots on the map.

Hover mouse over dot to see the name of the station.

Then click to see weather observations and forecasts.

To change the map : click on the green buttons with a black cross to zoom in, on the green button with a dash to zoom out, or on the green arrows for adjacent maps.


METAR-TAF: